Time;durP1;ratioP1;P1;durP2;ratioP2;P2;SDS_P1;SDS_P2;PMS_P1;PMS_P2;Temp;Humidity;BMP_temperature;BMP_pressure;BME280_temperature;BME280_humidity;BME280_pressure;Samples;Min_cycle;Max_cycle;Signal;HPM_P1;HPM_P2
2023/02/02 00:00:53;;;;;;;24.80;10.00;;;;;;;9.86;66.34;98997.98;108014;1254;69663;-65
2023/02/02 00:03:19;;;;;;;25.90;10.90;;;;;;;9.80;66.77;98997.20;107982;1258;73549;-64
2023/02/02 00:05:48;;;;;;;22.30;10.40;;;;;;;9.58;67.20;99001.02;107995;1255;60191;-63
2023/02/02 00:08:15;;;;;;;25.80;12.20;;;;;;;9.75;66.76;98997.33;108067;1254;59362;-65
2023/02/02 00:10:43;;;;;;;28.80;10.40;;;;;;;9.91;65.95;99000.88;108028;1254;74378;-64
2023/02/02 00:13:11;;;;;;;21.10;10.00;;;;;;;9.70;66.24;98999.51;108043;1254;70686;-64
2023/02/02 00:15:38;;;;;;;27.30;11.20;;;;;;;9.58;66.89;98998.19;108036;1254;73887;-64
2023/02/02 00:18:05;;;;;;;21.60;10.20;;;;;;;9.56;67.01;98996.90;108009;1254;62420;-63
2023/02/02 00:20:33;;;;;;;23.30;10.80;;;;;;;9.52;67.41;98999.37;107898;1254;61268;-64
2023/02/02 00:23:00;;;;;;;25.00;12.30;;;;;;;9.71;67.13;98996.45;108084;1254;74775;-65
2023/02/02 00:25:28;;;;;;;20.10;9.80;;;;;;;9.62;67.28;98993.39;108101;1254;71525;-65
2023/02/02 00:27:55;;;;;;;25.50;11.50;;;;;;;9.84;66.82;98992.27;108054;1259;72563;-64
2023/02/02 00:30:22;;;;;;;22.70;10.40;;;;;;;9.94;66.24;98991.42;108057;1254;62227;-65
2023/02/02 00:32:51;;;;;;;24.60;11.10;;;;;;;9.93;66.36;98991.31;108053;1254;61335;-64
2023/02/02 00:35:18;;;;;;;26.20;11.60;;;;;;;9.92;66.17;98990.48;108068;1259;74623;-65
2023/02/02 00:37:44;;;;;;;26.20;10.30;;;;;;;9.83;66.64;98987.77;108008;1254;71235;-64
2023/02/02 00:40:11;;;;;;;29.60;11.60;;;;;;;9.98;66.37;98984.02;107895;1256;73410;-65
2023/02/02 00:42:38;;;;;;;23.80;11.20;;;;;;;9.75;66.80;98983.47;108004;1254;61162;-63
2023/02/02 00:45:15;;;;;;;26.00;11.60;;;;;;;9.96;66.63;98980.95;108008;1254;59826;-64
2023/02/02 00:47:46;;;;;;;24.50;12.00;;;;;;;9.97;66.29;98978.42;108015;1254;74707;-64
2023/02/02 00:50:18;;;;;;;29.80;12.90;;;;;;;9.92;66.30;98976.25;107940;1254;71437;-64
2023/02/02 00:52:46;;;;;;;22.80;12.10;;;;;;;9.87;66.57;98980.04;107993;1255;74102;-65
2023/02/02 00:55:14;;;;;;;31.50;12.70;;;;;;;9.83;66.61;98977.95;108063;1254;61350;-63
2023/02/02 00:57:43;;;;;;;30.60;13.20;;;;;;;9.74;66.70;98977.17;107939;1254;61345;-63
2023/02/02 01:00:15;;;;;;;35.60;14.50;;;;;;;9.41;67.83;98980.09;108015;1254;75036;-65
2023/02/02 01:02:42;;;;;;;27.50;12.50;;;;;;;9.66;67.39;98976.90;108047;1254;70421;-64
2023/02/02 01:05:10;;;;;;;26.40;12.40;;;;;;;9.59;67.26;98976.42;107957;1258;73213;-64
2023/02/02 01:07:38;;;;;;;29.70;13.70;;;;;;;9.82;66.95;98973.31;107897;1260;61271;-63
2023/02/02 01:10:06;;;;;;;30.80;13.80;;;;;;;9.73;66.93;98975.16;108002;1254;61008;-65
2023/02/02 01:12:32;;;;;;;26.30;12.60;;;;;;;10.10;66.22;98979.66;108015;1254;73899;-64
2023/02/02 01:15:01;;;;;;;35.30;16.00;;;;;;;10.05;65.79;98981.20;107991;1255;70933;-63
2023/02/02 01:17:29;;;;;;;28.50;14.00;;;;;;;9.67;66.89;98985.98;107983;1260;70678;-64
2023/02/02 01:19:58;;;;;;;31.40;14.40;;;;;;;9.80;66.59;98981.98;107917;1257;62147;-63
2023/02/02 01:22:25;;;;;;;31.20;14.10;;;;;;;9.67;66.75;98981.73;107994;1254;60425;-64
2023/02/02 01:24:52;;;;;;;33.60;14.10;;;;;;;9.99;66.23;98980.11;108010;1254;74825;-64
2023/02/02 01:27:19;;;;;;;31.20;15.40;;;;;;;10.01;66.03;98981.55;107882;1254;60432;-63
2023/02/02 01:29:45;;;;;;;30.00;14.00;;;;;;;10.00;65.94;98982.18;107937;1254;72991;-65
2023/02/02 01:32:12;;;;;;;26.20;12.70;;;;;;;9.92;66.16;98983.98;108042;1254;62377;-64
2023/02/02 01:34:40;;;;;;;33.50;15.20;;;;;;;9.76;66.59;98982.16;108043;1254;61424;-63
2023/02/02 01:37:08;;;;;;;30.90;14.20;;;;;;;9.78;66.65;98979.80;108063;1259;73462;-64
2023/02/02 01:39:36;;;;;;;31.30;14.90;;;;;;;10.09;66.01;98976.61;108061;1254;71152;-65
2023/02/02 01:42:03;;;;;;;25.30;12.90;;;;;;;10.13;65.39;98975.86;108040;1254;72999;-65
2023/02/02 01:45:12;;;;;;;36.00;14.10;;;;;;;9.91;66.10;98978.42;107994;1253;60434;-65
2023/02/02 01:47:47;;;;;;;25.30;14.70;;;;;;;10.07;65.53;98976.32;108029;1254;60716;-65
2023/02/02 01:50:15;;;;;;;28.20;12.70;;;;;;;10.41;64.65;98973.31;108033;1254;73119;-64
2023/02/02 01:52:43;;;;;;;30.00;14.50;;;;;;;10.03;65.44;98978.17;108082;1254;69875;-64
2023/02/02 01:55:10;;;;;;;43.40;16.40;;;;;;;10.18;65.32;98979.63;108106;1254;73630;-63
2023/02/02 01:57:40;;;;;;;33.10;14.90;;;;;;;9.99;65.63;98979.08;107903;1253;61457;-65
2023/02/02 02:00:10;;;;;;;37.40;14.90;;;;;;;10.02;65.82;98976.59;108060;1253;61382;-64
2023/02/02 02:02:42;;;;;;;32.10;15.20;;;;;;;9.87;65.98;98979.84;108012;1254;73790;-65
2023/02/02 02:05:10;;;;;;;26.80;14.90;;;;;;;9.79;66.39;98981.53;108070;1254;70190;-64
2023/02/02 02:07:39;;;;;;;34.90;15.50;;;;;;;9.74;66.79;98979.46;108062;1254;73678;-64
2023/02/02 02:10:07;;;;;;;35.60;16.30;;;;;;;9.45;67.37;98982.73;108061;1254;61037;-64
2023/02/02 02:12:34;;;;;;;30.90;14.80;;;;;;;9.62;67.22;98982.38;108058;1254;60421;-63
2023/02/02 02:18:20;;;;;;;30.60;14.40;;;;;;;10.03;65.62;98984.98;108052;1254;71160;-65
2023/02/02 02:27:23;;;;;;;34.00;15.60;;;;;;;10.11;65.28;98983.65;108027;1254;61220;-63
2023/02/02 02:30:06;;;;;;;38.00;14.90;;;;;;;10.08;65.31;98982.26;108072;1254;73167;-64
2023/02/02 02:33:06;;;;;;;32.70;15.80;;;;;;;10.37;64.60;98976.89;108078;1254;69713;-63
2023/02/02 02:35:40;;;;;;;37.50;16.40;;;;;;;10.36;64.39;98976.76;108072;1254;73568;-64
2023/02/02 02:38:15;;;;;;;37.40;16.20;;;;;;;10.46;63.80;98973.05;108051;1254;62103;-64
2023/02/02 02:40:48;;;;;;;34.70;16.50;;;;;;;10.42;63.82;98975.36;108017;1254;61539;-63
2023/02/02 02:43:23;;;;;;;41.80;17.80;;;;;;;10.48;63.63;98974.86;107987;1253;74946;-64
2023/02/02 02:45:50;;;;;;;37.20;15.30;;;;;;;10.51;63.54;98978.56;108055;1257;71294;-64
2023/02/02 02:48:17;;;;;;;38.40;17.50;;;;;;;10.39;63.53;98980.60;107949;1259;73214;-64
2023/02/02 02:50:46;;;;;;;35.70;16.10;;;;;;;9.96;64.75;98986.05;108086;1254;62008;-66
2023/02/02 02:53:16;;;;;;;39.20;17.90;;;;;;;9.50;66.32;98988.96;108083;1254;61258;-64
2023/02/02 02:55:48;;;;;;;43.20;19.80;;;;;;;9.86;65.60;98987.08;108145;1254;72902;-65
2023/02/02 02:58:48;;;;;;;40.60;17.60;;;;;;;9.70;65.81;98989.70;108137;1254;71072;-65
2023/02/02 03:01:29;;;;;;;34.20;16.20;;;;;;;9.53;66.33;98993.70;108097;1254;73784;-65
2023/02/02 03:04:03;;;;;;;40.90;20.20;;;;;;;9.63;66.19;98994.06;107993;1256;62073;-64
2023/02/02 03:06:36;;;;;;;37.00;17.50;;;;;;;9.65;66.02;98993.08;108075;1254;60287;-65
2023/02/02 03:09:22;;;;;;;31.30;15.90;;;;;;;9.64;66.09;98993.83;108046;1259;74951;-65
2023/02/02 03:11:49;;;;;;;33.30;16.60;;;;;;;9.67;65.94;98998.05;108061;1254;71221;-65
2023/02/02 03:14:15;;;;;;;33.00;15.00;;;;;;;9.69;65.91;99000.44;107994;1254;73042;-64
2023/02/02 03:16:42;;;;;;;35.00;15.40;;;;;;;9.99;65.24;99002.54;107982;1254;61475;-64
2023/02/02 03:19:09;;;;;;;32.50;15.30;;;;;;;9.92;65.36;98997.83;107996;1254;61768;-63
2023/02/02 03:21:36;;;;;;;33.70;14.80;;;;;;;9.82;65.54;99004.27;108006;1254;74188;-65
2023/02/02 03:24:03;;;;;;;36.30;17.40;;;;;;;10.12;64.90;99001.15;107975;1254;70648;-64
2023/02/02 03:26:30;;;;;;;37.60;17.70;;;;;;;9.90;65.27;99003.02;108003;1254;72016;-65
2023/02/02 03:28:57;;;;;;;34.80;15.90;;;;;;;9.89;65.32;99005.36;107996;1253;60309;-64
2023/02/02 03:31:25;;;;;;;36.40;16.00;;;;;;;10.10;64.99;99006.02;108074;1257;60617;-63
2023/02/02 03:33:53;;;;;;;38.00;16.00;;;;;;;10.18;64.33;99005.05;108104;1257;72787;-64
2023/02/02 03:36:19;;;;;;;34.00;16.60;;;;;;;9.99;64.71;99008.31;108139;1254;71503;-63
2023/02/02 03:38:48;;;;;;;37.30;17.80;;;;;;;9.83;65.07;99010.54;108092;1254;73688;-64
2023/02/02 03:41:14;;;;;;;36.60;17.30;;;;;;;9.92;65.01;99011.84;108087;1254;60506;-64
2023/02/02 03:43:41;;;;;;;42.00;18.90;;;;;;;9.87;65.26;99012.81;108097;1254;61222;-64
2023/02/02 07:31:16;;;;;;;42.80;22.00;;;;;;;4.83;100.00;99131.31;105600;1286;612987;-66
2023/02/02 07:33:45;;;;;;;45.00;22.00;;;;;;;5.99;100.00;99132.39;107106;1267;122955;-67
2023/02/02 07:36:17;;;;;;;35.10;19.20;;;;;;;6.24;100.00;99131.36;107312;1266;61260;-67
2023/02/02 07:38:46;;;;;;;40.90;21.30;;;;;;;6.39;100.00;99128.17;107257;1267;73274;-66
2023/02/02 07:41:14;;;;;;;51.10;22.30;;;;;;;6.53;100.00;99126.66;107519;1260;71566;-68
2023/02/02 07:43:45;;;;;;;40.30;21.30;;;;;;;6.51;100.00;99127.73;107510;1261;73892;-67
2023/02/02 07:46:14;;;;;;;40.40;21.80;;;;;;;6.66;100.00;99134.89;107507;1260;61992;-67
2023/02/02 07:48:42;;;;;;;39.00;17.50;;;;;;;6.59;100.00;99137.61;107505;1260;59627;-67
2023/02/02 07:51:15;;;;;;;37.20;17.80;;;;;;;6.56;100.00;99138.77;107560;1264;70729;-67
2023/02/02 07:53:47;;;;;;;39.70;20.40;;;;;;;6.77;100.00;99139.70;107548;1261;68479;-67
2023/02/02 07:56:17;;;;;;;48.60;23.10;;;;;;;6.89;100.00;99136.80;107496;1260;70853;-67
2023/02/02 07:58:45;;;;;;;51.70;25.10;;;;;;;7.10;100.00;99137.41;107516;1261;62366;-67
2023/02/02 08:01:14;;;;;;;43.60;21.80;;;;;;;7.08;100.00;99142.94;107533;1260;59970;-67
2023/02/02 08:03:42;;;;;;;48.90;21.00;;;;;;;7.03;100.00;99143.45;107584;1260;74373;-66
2023/02/02 08:06:16;;;;;;;45.70;20.50;;;;;;;7.04;100.00;99144.12;107526;1261;68903;-67
2023/02/02 08:08:44;;;;;;;44.10;22.00;;;;;;;6.97;100.00;99148.04;107516;1260;71902;-67
2023/02/02 08:11:15;;;;;;;39.20;20.30;;;;;;;7.06;100.00;99146.14;107491;1264;60521;-67
2023/02/02 08:13:43;;;;;;;43.30;21.30;;;;;;;7.10;100.00;99148.40;107499;1260;60370;-67
2023/02/02 08:16:11;;;;;;;39.10;20.80;;;;;;;7.13;100.00;99154.06;107707;1257;72985;-67
2023/02/02 08:18:42;;;;;;;42.70;19.00;;;;;;;7.12;100.00;99154.78;107732;1257;71598;-66
2023/02/02 08:21:10;;;;;;;39.50;21.20;;;;;;;7.13;100.00;99157.91;107747;1257;70798;-66
2023/02/02 08:23:39;;;;;;;46.40;21.90;;;;;;;7.60;100.00;99156.93;107786;1257;61294;-67
2023/02/02 08:26:11;;;;;;;40.20;19.70;;;;;;;7.94;100.00;99151.70;107842;1257;59538;-67
2023/02/02 08:28:40;;;;;;;37.90;20.80;;;;;;;8.09;100.00;99149.33;107801;1257;74088;-67
2023/02/02 08:31:16;;;;;;;43.00;22.60;;;;;;;8.21;100.00;99151.05;107771;1257;70189;-67
2023/02/02 08:33:44;;;;;;;40.60;19.80;;;;;;;8.27;100.00;99154.84;107732;1260;71748;-67
2023/02/02 08:36:19;;;;;;;53.20;27.30;;;;;;;8.48;100.00;99148.55;107686;1259;61580;-66
2023/02/02 08:38:51;;;;;;;44.40;23.10;;;;;;;8.63;100.00;99145.59;107752;1262;60248;-67
2023/02/02 08:41:21;;;;;;;34.90;18.80;;;;;;;8.73;95.53;99146.91;107712;1258;74352;-67
2023/02/02 08:43:49;;;;;;;40.60;21.20;;;;;;;9.32;92.97;99147.15;107713;1259;70210;-67
2023/02/02 08:46:18;;;;;;;42.10;20.50;;;;;;;10.16;75.87;99145.15;107681;1259;71646;-67
2023/02/02 08:48:47;;;;;;;29.20;17.20;;;;;;;10.61;70.02;99148.11;107760;1258;61055;-68
2023/02/02 08:51:17;;;;;;;32.40;17.40;;;;;;;11.19;67.30;99140.40;107660;1260;61800;-67
2023/02/02 08:53:46;;;;;;;32.40;17.90;;;;;;;11.56;65.81;99136.72;107762;1260;74061;-67
2023/02/02 08:56:16;;;;;;;37.20;20.10;;;;;;;12.19;63.23;99130.63;107703;1260;69132;-67
2023/02/02 08:58:49;;;;;;;34.20;18.40;;;;;;;12.96;63.42;99129.45;107812;1258;74057;-67
2023/02/02 09:01:19;;;;;;;28.90;16.50;;;;;;;13.67;57.90;99129.88;107778;1259;62323;-66
2023/02/02 09:03:47;;;;;;;30.40;16.70;;;;;;;13.52;57.66;99131.04;107732;1259;59747;-66
2023/02/02 09:06:17;;;;;;;28.70;15.30;;;;;;;13.34;58.41;99129.04;107752;1259;73990;-68
2023/02/02 09:08:45;;;;;;;25.90;13.80;;;;;;;13.40;57.22;99129.88;107787;1258;71162;-67
2023/02/02 09:11:17;;;;;;;26.50;15.80;;;;;;;13.73;55.81;99127.39;107741;1262;72670;-67
2023/02/02 09:13:47;;;;;;;24.10;13.70;;;;;;;13.52;53.83;99125.75;107806;1260;59107;-68
2023/02/02 09:16:16;;;;;;;28.10;14.80;;;;;;;13.09;54.32;99125.51;107801;1259;59362;-66
2023/02/02 09:18:44;;;;;;;23.50;13.80;;;;;;;12.78;55.56;99125.52;107771;1258;72158;-67
2023/02/02 09:21:14;;;;;;;26.60;15.10;;;;;;;12.48;56.10;99125.38;107733;1262;71205;-66
2023/02/02 09:23:42;;;;;;;27.50;16.10;;;;;;;12.44;57.27;99132.01;108022;1255;73686;-67
2023/02/02 09:26:39;;;;;;;24.70;14.30;;;;;;;11.90;57.50;99133.01;107970;1257;60984;-67
2023/02/02 09:29:09;;;;;;;25.30;14.70;;;;;;;11.08;59.83;99136.48;107893;1259;59747;-67
2023/02/02 09:31:37;;;;;;;28.70;15.30;;;;;;;10.57;60.75;99137.94;107779;1256;71717;-67
2023/02/02 09:34:07;;;;;;;25.00;14.60;;;;;;;10.27;61.85;99138.63;107843;1256;70611;-66
2023/02/02 09:36:36;;;;;;;21.50;14.00;;;;;;;10.23;62.60;99133.00;107834;1256;72635;-67
2023/02/02 09:39:04;;;;;;;27.20;14.80;;;;;;;10.67;62.42;99130.03;107840;1256;60206;-67
2023/02/02 09:41:36;;;;;;;22.80;13.80;;;;;;;10.85;61.37;99131.39;107871;1256;61258;-67
2023/02/02 09:44:16;;;;;;;;;;;;;;;10.70;60.83;99133.90;107846;1257;71436;-66
2023/02/02 09:47:02;;;;;;;24.90;15.80;;;;;;;10.74;61.24;99133.19;107872;1256;71028;-66
2023/02/02 09:49:38;;;;;;;25.50;14.20;;;;;;;10.57;61.52;99133.23;107826;1256;72432;-66
2023/02/02 09:52:21;;;;;;;32.70;16.80;;;;;;;10.88;61.22;99136.10;107843;1256;62402;-67
2023/02/02 09:54:49;;;;;;;29.70;16.30;;;;;;;11.13;61.41;99131.23;108052;1256;60750;-67
2023/02/02 09:57:22;;;;;;;24.80;14.80;;;;;;;11.24;60.04;99127.84;107926;1256;73447;-67
2023/02/02 09:59:51;;;;;;;31.00;15.80;;;;;;;11.01;60.71;99127.13;107912;1256;71572;-67
2023/02/02 10:02:25;;;;;;;27.80;16.50;;;;;;;11.02;60.68;99123.92;107880;1257;74063;-67
2023/02/02 10:04:55;;;;;;;27.50;15.60;;;;;;;11.04;60.55;99124.91;107912;1256;62168;-66
2023/02/02 10:07:26;;;;;;;33.50;17.80;;;;;;;10.73;59.85;99129.21;107882;1256;59492;-67
2023/02/02 10:10:01;;;;;;;26.70;15.40;;;;;;;10.56;60.40;99128.86;107893;1256;73862;-67
2023/02/02 10:12:46;;;;;;;29.30;15.50;;;;;;;10.37;60.96;99126.86;107834;1256;70847;-67
2023/02/02 10:15:24;;;;;;;31.70;17.40;;;;;;;10.40;61.34;99127.26;107872;1258;73647;-67
2023/02/02 10:17:54;;;;;;;25.60;15.00;;;;;;;10.23;62.01;99131.45;107915;1256;59721;-67
2023/02/02 10:20:38;;;;;;;26.00;15.50;;;;;;;10.53;61.68;99132.02;107929;1256;60997;-67
2023/02/02 10:23:25;;;;;;;31.60;16.50;;;;;;;10.62;61.47;99131.01;107902;1256;74153;-67
2023/02/02 10:25:59;;;;;;;28.80;15.50;;;;;;;10.80;60.74;99133.73;107802;1256;71681;-66
2023/02/02 10:29:05;;;;;;;25.10;15.20;;;;;;;10.85;60.67;99137.88;107969;1257;74012;-66
2023/02/02 10:31:43;;;;;;;27.80;15.00;;;;;;;10.79;61.03;99138.00;108024;1257;61704;-67
2023/02/02 10:34:31;;;;;;;23.80;14.30;;;;;;;10.83;60.70;99139.88;108040;1256;61339;-66
2023/02/02 10:37:13;;;;;;;30.80;13.90;;;;;;;10.80;60.76;99140.59;107998;1255;72839;-67
2023/02/02 10:39:54;;;;;;;26.20;15.50;;;;;;;10.71;61.03;99140.70;107995;1256;70237;-67
2023/02/02 10:45:41;;;;;;;25.30;13.00;;;;;;;10.33;61.62;99142.00;107988;1256;62091;-65
2023/02/02 10:48:21;;;;;;;22.00;14.30;;;;;;;10.49;61.45;99138.36;107899;1256;61407;-66
2023/02/02 10:50:52;;;;;;;28.20;14.20;;;;;;;10.38;61.93;99139.48;107985;1256;71507;-66
2023/02/02 10:53:21;;;;;;;23.50;13.10;;;;;;;10.39;61.56;99141.48;107987;1256;70616;-66
2023/02/02 10:55:50;;;;;;;24.40;14.80;;;;;;;10.53;61.45;99137.46;107809;1257;72139;-66
2023/02/02 10:58:23;;;;;;;25.90;14.20;;;;;;;10.75;60.93;99132.24;107989;1257;60894;-66
2023/02/02 11:00:53;;;;;;;21.30;12.20;;;;;;;10.82;60.80;99131.73;107909;1255;59546;-67
2023/02/02 11:03:24;;;;;;;24.10;12.50;;;;;;;10.92;60.55;99131.71;108063;1256;74070;-67
2023/02/02 11:08:42;;;;;;;20.60;13.70;;;;;;;11.10;59.49;99134.92;107844;1257;73559;-66
2023/02/02 11:11:16;;;;;;;25.80;15.80;;;;;;;11.19;60.09;99129.02;107845;1256;61563;-67
2023/02/02 11:14:09;;;;;;;24.60;13.90;;;;;;;11.61;58.44;99128.90;107871;1256;59491;-66
2023/02/02 11:16:38;;;;;;;21.40;13.40;;;;;;;11.96;57.39;99132.19;107897;1256;71388;-67
2023/02/02 11:19:18;;;;;;;25.00;14.30;;;;;;;12.75;56.10;99127.42;107979;1255;71384;-68
2023/02/02 11:21:48;;;;;;;19.90;11.50;;;;;;;12.97;54.57;99127.32;107938;1256;73958;-66
2023/02/02 11:24:29;;;;;;;20.40;12.20;;;;;;;13.14;52.84;99126.23;107945;1256;60815;-67
2023/02/02 11:27:01;;;;;;;20.00;12.10;;;;;;;13.56;52.72;99130.63;107886;1256;61092;-67
2023/02/02 11:29:40;;;;;;;16.20;10.60;;;;;;;14.21;51.91;99132.29;107900;1256;74388;-67
2023/02/02 11:32:28;;;;;;;20.10;11.80;;;;;;;14.82;50.43;99128.10;107870;1256;69724;-67
2023/02/02 11:35:02;;;;;;;23.50;13.50;;;;;;;15.15;47.72;99123.11;107884;1257;71400;-68
2023/02/02 11:37:32;;;;;;;18.00;11.90;;;;;;;14.48;48.09;99129.74;107857;1256;61835;-67
2023/02/02 11:40:32;;;;;;;23.20;12.80;;;;;;;14.52;48.25;99125.81;107942;1256;61139;-67
2023/02/02 11:43:06;;;;;;;22.20;13.30;;;;;;;14.73;48.20;99128.94;107878;1256;73390;-67
2023/02/02 11:45:36;;;;;;;18.00;11.80;;;;;;;14.59;47.33;99127.29;107986;1256;71623;-67
2023/02/02 11:48:29;;;;;;;20.60;12.40;;;;;;;14.21;47.41;99130.71;107981;1260;73627;-67
2023/02/02 11:50:57;;;;;;;23.40;12.90;;;;;;;14.22;48.26;99130.84;107921;1256;60847;-67
2023/02/02 11:53:29;;;;;;;22.80;13.60;;;;;;;13.98;48.41;99125.89;107842;1256;61230;-67
2023/02/02 11:56:01;;;;;;;;;;;;;;;13.76;48.39;99124.87;107928;1256;74835;-67
2023/02/02 11:58:41;;;;;;;24.40;14.80;;;;;;;13.43;49.65;99127.24;107904;1256;69822;-67
2023/02/02 12:01:27;;;;;;;24.70;13.70;;;;;;;13.05;50.08;99126.45;107856;1256;73286;-66
2023/02/02 12:03:56;;;;;;;23.90;14.40;;;;;;;12.93;50.42;99122.77;107761;1256;60492;-67
2023/02/02 12:06:31;;;;;;;25.60;15.00;;;;;;;12.88;50.57;99128.44;107886;1256;61587;-66
2023/02/02 12:09:01;;;;;;;25.30;14.90;;;;;;;12.63;51.23;99130.80;107685;1256;74413;-67
2023/02/02 12:11:51;;;;;;;24.50;14.00;;;;;;;12.75;51.11;99129.75;107910;1256;70330;-67
2023/02/02 12:14:44;;;;;;;21.10;13.00;;;;;;;12.75;50.90;99128.12;107922;1256;71437;-67
2023/02/02 12:17:37;;;;;;;22.90;12.90;;;;;;;12.88;50.47;99129.83;107902;1257;61202;-67
2023/02/02 12:20:14;;;;;;;22.60;14.00;;;;;;;12.74;50.57;99129.77;107903;1256;60672;-67
2023/02/02 12:22:57;;;;;;;24.50;14.00;;;;;;;12.98;50.44;99129.38;107957;1256;72991;-66
2023/02/02 12:25:50;;;;;;;26.00;14.60;;;;;;;12.91;50.46;99135.27;107881;1257;69005;-67
2023/02/02 12:28:42;;;;;;;22.90;13.90;;;;;;;12.52;50.63;99137.33;107939;1257;73086;-67
2023/02/02 12:31:25;;;;;;;26.90;14.90;;;;;;;12.72;50.57;99135.02;107962;1255;61749;-67
2023/02/02 12:34:19;;;;;;;21.80;12.90;;;;;;;12.99;49.69;99137.74;107955;1257;61640;-66
2023/02/02 12:36:59;;;;;;;27.80;14.50;;;;;;;12.70;50.68;99141.31;107975;1259;74247;-67
2023/02/02 12:39:35;;;;;;;27.50;14.90;;;;;;;13.06;50.39;99138.70;107971;1255;70330;-67
2023/02/02 12:42:26;;;;;;;31.20;14.20;;;;;;;13.13;49.95;99142.15;108072;1255;73609;-66
2023/02/02 12:45:05;;;;;;;28.40;14.40;;;;;;;12.94;49.97;99143.55;107853;1255;60972;-67
2023/02/02 12:48:08;;;;;;;26.50;15.60;;;;;;;13.04;49.71;99145.74;107964;1255;60303;-67
2023/02/02 12:50:50;;;;;;;32.50;16.10;;;;;;;13.19;49.59;99145.67;107382;1262;72847;-66
2023/02/02 12:53:27;;;;;;;24.00;13.00;;;;;;;12.88;49.67;99143.71;107906;1257;69851;-66
2023/02/02 12:56:14;;;;;;;29.10;15.70;;;;;;;12.78;50.10;99142.23;107933;1255;73615;-67
2023/02/02 12:59:21;;;;;;;29.80;17.10;;;;;;;12.74;50.34;99147.92;107948;1256;60895;-67
2023/02/02 13:02:31;;;;;;;26.70;15.30;;;;;;;12.63;50.60;99149.34;107895;1255;60441;-67
2023/02/02 13:05:32;;;;;;;30.90;16.00;;;;;;;12.41;50.58;99151.55;107975;1256;74038;-66
2023/02/02 13:08:29;;;;;;;29.50;16.10;;;;;;;12.20;51.08;99150.30;107834;1256;71697;-67
2023/02/02 13:11:04;;;;;;;29.90;16.80;;;;;;;12.23;51.33;99152.39;107774;1255;73394;-66
2023/02/02 13:13:36;;;;;;;23.20;14.60;;;;;;;12.24;51.35;99150.39;107934;1255;62017;-67
2023/02/02 13:16:10;;;;;;;28.10;15.30;;;;;;;12.08;51.90;99155.05;107994;1256;60799;-66
2023/02/02 13:18:48;;;;;;;22.30;13.50;;;;;;;12.10;51.87;99157.41;107946;1256;74100;-67
2023/02/02 13:21:18;;;;;;;27.20;15.20;;;;;;;12.19;51.49;99158.08;107886;1256;71628;-67
2023/02/02 13:23:50;;;;;;;31.40;15.70;;;;;;;12.08;51.82;99159.66;107977;1256;73740;-66
2023/02/02 13:26:26;;;;;;;25.20;14.80;;;;;;;12.17;51.51;99161.20;107970;1256;61882;-66
2023/02/02 13:29:04;;;;;;;27.60;14.20;;;;;;;12.00;51.89;99163.09;107947;1256;59819;-65
2023/02/02 13:32:04;;;;;;;28.70;15.20;;;;;;;11.75;52.33;99158.35;107936;1256;75282;-66
2023/02/02 13:34:41;;;;;;;26.00;15.50;;;;;;;12.11;51.96;99161.77;107857;1256;71593;-66
2023/02/02 13:37:26;;;;;;;22.80;13.60;;;;;;;12.06;51.88;99164.15;107920;1256;73756;-66
2023/02/02 13:39:59;;;;;;;30.90;15.00;;;;;;;12.06;51.68;99162.40;107888;1257;61506;-66
2023/02/02 13:42:40;;;;;;;29.50;16.10;;;;;;;11.83;52.22;99163.16;107879;1256;60975;-67
2023/02/02 13:45:18;;;;;;;27.90;16.20;;;;;;;11.68;52.57;99168.27;107922;1256;73118;-67
2023/02/02 13:47:51;;;;;;;33.90;17.30;;;;;;;11.77;52.75;99164.39;107909;1256;70809;-67
2023/02/02 13:50:20;;;;;;;28.70;16.10;;;;;;;11.84;52.62;99165.02;107739;1256;70918;-67
2023/02/02 13:53:00;;;;;;;27.10;16.30;;;;;;;11.40;53.46;99168.56;107685;1262;60320;-67
2023/02/02 13:55:47;;;;;;;37.80;20.00;;;;;;;11.55;53.61;99169.33;107925;1256;60234;-67
2023/02/02 13:58:28;;;;;;;33.60;17.00;;;;;;;11.54;53.65;99174.80;107880;1256;73038;-67
2023/02/02 14:01:00;;;;;;;27.30;16.40;;;;;;;11.21;54.31;99175.75;107825;1256;70504;-66
2023/02/02 14:03:37;;;;;;;25.20;14.70;;;;;;;11.34;54.48;99178.58;107907;1256;72389;-67
2023/02/02 14:06:18;;;;;;;27.40;15.20;;;;;;;10.81;55.55;99183.22;107940;1256;60692;-66
2023/02/02 14:09:16;;;;;;;25.60;15.30;;;;;;;10.67;56.22;99183.40;107881;1256;61207;-66
2023/02/02 14:11:58;;;;;;;28.30;15.90;;;;;;;10.62;56.36;99187.73;107776;1256;74836;-66
2023/02/02 14:14:33;;;;;;;29.40;15.80;;;;;;;10.81;56.32;99187.58;107830;1256;70533;-66
2023/02/02 14:17:12;;;;;;;34.60;16.60;;;;;;;10.90;56.10;99189.55;107847;1256;71978;-66
2023/02/02 14:20:32;;;;;;;29.80;16.20;;;;;;;11.19;55.31;99185.19;107806;1256;62132;-66
2023/02/02 14:23:01;;;;;;;25.20;13.50;;;;;;;10.76;56.35;99190.70;107787;1256;60804;-66
2023/02/02 14:25:32;;;;;;;25.40;14.20;;;;;;;10.35;57.41;99195.72;107935;1256;75082;-71
2023/02/02 14:28:43;;;;;;;30.00;17.30;;;;;;;10.75;56.62;99193.84;107863;1255;71293;-66
2023/02/02 14:31:28;;;;;;;31.60;18.30;;;;;;;11.24;55.54;99192.80;107901;1255;73792;-67
2023/02/02 14:34:26;;;;;;;28.70;17.30;;;;;;;11.00;56.08;99192.36;107958;1257;61527;-66
2023/02/02 14:36:58;;;;;;;36.90;18.70;;;;;;;10.99;55.95;99193.64;107973;1256;60277;-66
2023/02/02 14:39:27;;;;;;;31.00;19.00;;;;;;;11.04;55.88;99195.29;108002;1255;73234;-66
2023/02/02 14:45:08;;;;;;;25.50;15.60;;;;;;;11.18;55.45;99196.33;107982;1255;74043;-66
2023/02/02 14:47:43;;;;;;;33.00;17.80;;;;;;;11.53;54.95;99196.84;107986;1256;62118;-67
2023/02/02 14:50:26;;;;;;;30.20;16.10;;;;;;;11.36;55.01;99193.93;107962;1259;60315;-67
2023/02/02 14:53:02;;;;;;;31.70;17.80;;;;;;;10.80;56.22;99200.98;107968;1257;74606;-67
2023/02/02 14:55:30;;;;;;;33.80;19.30;;;;;;;10.81;56.50;99204.64;107965;1257;70886;-67
2023/02/02 14:58:00;;;;;;;30.60;17.90;;;;;;;11.18;55.78;99205.96;107817;1257;73971;-67
2023/02/02 15:00:31;;;;;;;40.00;22.60;;;;;;;11.04;56.16;99207.96;107993;1259;60685;-66
2023/02/02 15:03:36;;;;;;;51.00;25.70;;;;;;;10.87;56.40;99208.88;107970;1256;60282;-66
2023/02/02 15:06:12;;;;;;;37.30;21.20;;;;;;;11.10;56.10;99208.69;107954;1256;74610;-66
2023/02/02 15:08:42;;;;;;;36.60;21.40;;;;;;;10.93;56.31;99216.98;107973;1256;71967;-67
2023/02/02 15:11:28;;;;;;;38.80;20.60;;;;;;;11.22;55.78;99216.48;107964;1257;73608;-67
2023/02/02 15:14:01;;;;;;;31.10;17.70;;;;;;;11.08;56.19;99218.84;107904;1256;60457;-67
2023/02/02 15:16:30;;;;;;;30.20;18.00;;;;;;;11.39;55.47;99220.29;107953;1256;59604;-67
2023/02/02 15:19:20;;;;;;;30.10;17.40;;;;;;;11.69;54.60;99217.58;107927;1256;73485;-67
2023/02/02 15:21:48;;;;;;;29.20;16.50;;;;;;;11.33;55.11;99223.23;107942;1257;71509;-67
2023/02/02 15:24:21;;;;;;;40.10;19.20;;;;;;;11.12;56.03;99227.41;107709;1256;73933;-67
2023/02/02 15:26:49;;;;;;;34.50;18.90;;;;;;;11.34;55.71;99228.83;107845;1256;60225;-67
2023/02/02 15:29:34;;;;;;;34.40;19.30;;;;;;;11.12;56.07;99230.93;107680;1256;60268;-67
2023/02/02 15:32:05;;;;;;;38.70;20.40;;;;;;;10.92;56.68;99241.26;107824;1256;75036;-66
2023/02/02 15:34:47;;;;;;;34.00;18.70;;;;;;;11.16;56.44;99240.16;107624;1256;71531;-66
2023/02/02 15:37:19;;;;;;;30.60;17.40;;;;;;;11.24;56.32;99246.77;107948;1256;73465;-67
2023/02/02 15:39:50;;;;;;;38.00;19.50;;;;;;;11.18;56.41;99252.52;107809;1256;61649;-67
2023/02/02 15:45:46;;;;;;;34.00;17.60;;;;;;;10.36;58.28;99253.53;107892;1256;73239;-67
2023/02/02 15:48:28;;;;;;;37.80;20.30;;;;;;;9.82;60.71;99263.04;107870;1256;70779;-67
2023/02/02 15:51:02;;;;;;;43.20;20.80;;;;;;;9.77;61.16;99265.55;107967;1256;72577;-67
2023/02/02 15:53:42;;;;;;;35.60;20.30;;;;;;;10.07;60.70;99267.48;107841;1256;62047;-66